Time;durP1;ratioP1;P1;durP2;ratioP2;P2;SDS_P1;SDS_P2;PMS_P1;PMS_P2;Temp;Humidity;BMP_temperature;BMP_pressure;BME280_temperature;BME280_humidity;BME280_pressure;Samples;Min_cycle;Max_cycle;Signal;HPM_P1;HPM_P2
2023/11/21 00:01:11;;;;;;;44.50;23.43;;;;;;;4.02;74.86;100052.50;124027;1109;104198;-79
2023/11/21 00:03:44;;;;;;;43.13;23.47;;;;;;;4.02;75.18;100051.58;124050;1108;104264;-80
2023/11/21 00:06:16;;;;;;;50.80;25.07;;;;;;;4.01;75.19;100057.61;124027;1108;104267;-79
2023/11/21 00:08:47;;;;;;;41.13;22.27;;;;;;;3.99;74.57;100044.54;124071;1109;104229;-79
2023/11/21 00:11:19;;;;;;;44.60;23.23;;;;;;;3.95;74.92;100047.77;123962;1108;104252;-79
2023/11/21 00:13:50;;;;;;;46.33;24.07;;;;;;;3.93;74.76;100042.48;123971;1108;101896;-79
2023/11/21 00:16:22;;;;;;;45.33;24.00;;;;;;;3.91;74.96;100046.72;123965;1109;101920;-78
2023/11/21 00:18:53;;;;;;;46.57;24.30;;;;;;;3.90;75.21;100041.44;124006;1109;104297;-79
2023/11/21 00:21:25;;;;;;;45.97;23.57;;;;;;;3.89;75.33;100042.23;123908;1109;104293;-79
2023/11/21 00:23:56;;;;;;;46.47;25.10;;;;;;;3.87;75.52;100031.77;124002;1107;104169;-79
2023/11/21 00:26:28;;;;;;;44.07;22.77;;;;;;;3.84;75.16;100021.22;123965;1108;104220;-79
2023/11/21 00:29:08;;;;;;;44.77;23.70;;;;;;;3.82;74.88;100029.72;123945;1109;104194;-78
2023/11/21 00:31:38;;;;;;;;;;;;;;;3.80;75.20;100040.02;123979;1108;101990;-78
2023/11/21 00:34:12;;;;;;;43.07;22.33;;;;;;;3.80;75.39;100041.73;123866;1108;104079;-78
2023/11/21 00:36:44;;;;;;;41.13;21.90;;;;;;;3.80;75.45;100057.30;123909;1106;104239;-77
2023/11/21 00:39:16;;;;;;;43.27;22.53;;;;;;;3.79;75.53;100051.23;123770;1108;102834;-78
2023/11/21 00:41:48;;;;;;;45.07;23.07;;;;;;;3.79;76.03;100046.03;123746;1108;104195;-78
2023/11/21 00:44:19;;;;;;;40.33;21.17;;;;;;;3.79;75.48;100033.06;123754;1108;104306;-78
2023/11/21 00:46:58;;;;;;;43.07;22.30;;;;;;;3.80;75.61;100042.61;123734;1109;104267;-77
2023/11/21 00:49:30;;;;;;;44.90;24.07;;;;;;;3.80;75.48;100055.59;123802;1109;104303;-78
2023/11/21 00:52:02;;;;;;;42.23;21.53;;;;;;;3.78;75.33;100052.02;123749;1109;104191;-77
2023/11/21 00:54:34;;;;;;;37.07;19.83;;;;;;;3.78;75.95;100049.43;123902;1109;104262;-78
2023/11/21 00:57:05;;;;;;;40.37;21.20;;;;;;;3.78;75.94;100062.41;123962;1108;101934;-78
2023/11/21 00:59:37;;;;;;;40.03;20.77;;;;;;;3.79;76.03;100061.61;123930;1108;104309;-78
2023/11/21 01:02:10;;;;;;;40.10;21.67;;;;;;;3.80;75.85;100055.59;123838;1108;101888;-76
2023/11/21 01:04:41;;;;;;;43.93;22.60;;;;;;;3.81;75.49;100062.58;123832;1108;104220;-77
2023/11/21 01:07:13;;;;;;;38.50;20.50;;;;;;;3.83;75.65;100053.16;123854;1109;104214;-77
2023/11/21 01:09:44;;;;;;;42.73;21.17;;;;;;;3.83;76.15;100050.56;123714;1108;104310;-77
2023/11/21 01:12:17;;;;;;;40.17;21.23;;;;;;;3.85;76.28;100055.84;123707;1109;104233;-77
2023/11/21 01:14:48;;;;;;;41.00;20.93;;;;;;;3.86;75.99;100058.52;123796;1109;104217;-77
2023/11/21 01:17:22;;;;;;;38.20;20.40;;;;;;;3.86;76.16;100058.52;123851;1108;101855;-78
2023/11/21 01:19:53;;;;;;;38.02;20.30;;;;;;;3.87;75.95;100057.73;123848;1108;104236;-77
2023/11/21 01:22:26;;;;;;;36.93;20.07;;;;;;;3.88;75.71;100051.73;123822;1108;104188;-76
2023/11/21 01:24:58;;;;;;;34.90;19.05;;;;;;;3.87;76.38;100047.34;123788;1108;104239;-76
2023/11/21 01:27:30;;;;;;;38.13;19.43;;;;;;;3.86;76.64;100048.14;123807;1108;101881;-76
2023/11/21 01:30:01;;;;;;;35.60;17.97;;;;;;;3.86;76.37;100039.47;123843;1109;104262;-78
2023/11/21 01:32:33;;;;;;;36.95;19.55;;;;;;;3.84;76.08;100029.01;123826;1108;104281;-78
2023/11/21 01:35:06;;;;;;;39.45;19.65;;;;;;;3.84;76.60;100034.20;123872;1108;102052;-77
2023/11/21 01:37:37;;;;;;;37.03;19.60;;;;;;;3.85;76.12;100045.45;123823;1108;104237;-76
2023/11/21 01:40:13;;;;;;;36.30;19.23;;;;;;;3.82;76.19;100030.64;123824;1108;104182;-77
2023/11/21 01:42:46;;;;;;;36.20;18.77;;;;;;;3.80;76.46;100027.04;123794;1109;104272;-79
2023/11/21 01:45:18;;;;;;;35.43;18.50;;;;;;;3.80;76.91;100029.63;123746;1108;104192;-75
2023/11/21 01:47:50;;;;;;;33.00;17.90;;;;;;;3.80;76.47;100023.56;123803;1106;101960;-76
2023/11/21 01:50:22;;;;;;;34.70;18.30;;;;;;;3.79;76.32;100020.09;123842;1109;104281;-78
2023/11/21 01:52:54;;;;;;;34.40;17.90;;;;;;;3.76;76.62;100020.80;123991;1108;104265;-77
2023/11/21 01:55:27;;;;;;;33.67;17.90;;;;;;;3.77;76.49;100019.08;124081;1108;104201;-78
2023/11/21 01:57:59;;;;;;;35.30;18.53;;;;;;;3.76;77.04;100014.72;124035;1109;102048;-78
2023/11/21 02:00:33;;;;;;;34.20;17.87;;;;;;;3.75;76.32;100025.91;124030;1109;102216;-78
2023/11/21 02:03:04;;;;;;;33.58;17.73;;;;;;;3.73;77.12;100024.94;123943;1109;104271;-78
2023/11/21 02:05:36;;;;;;;34.17;17.63;;;;;;;3.73;76.88;100031.00;124064;1108;101852;-78
2023/11/21 02:08:09;;;;;;;35.50;17.97;;;;;;;3.72;76.69;100025.73;124135;1109;102138;-78
2023/11/21 02:10:40;;;;;;;33.85;17.40;;;;;;;3.71;76.49;100039.50;124121;1108;104258;-77
2023/11/21 02:13:12;;;;;;;34.20;17.83;;;;;;;3.71;77.26;100047.29;123954;1109;102077;-78
2023/11/21 02:15:43;;;;;;;38.10;18.83;;;;;;;3.70;76.75;100050.71;124012;1109;102061;-78
2023/11/21 02:18:15;;;;;;;35.43;17.73;;;;;;;3.70;77.32;100045.52;124037;1109;101941;-77
2023/11/21 02:20:47;;;;;;;35.93;18.07;;;;;;;3.71;77.51;100044.69;123889;1108;102035;-77
2023/11/21 02:23:18;;;;;;;35.00;17.45;;;;;;;3.69;76.78;100049.80;123828;1109;102498;-77
2023/11/21 02:25:50;;;;;;;35.27;18.20;;;;;;;3.70;77.17;100043.81;123847;1109;101971;-78
2023/11/21 02:28:25;;;;;;;35.67;17.83;;;;;;;3.70;77.22;100046.41;123753;1109;104179;-78
2023/11/21 02:30:58;;;;;;;34.70;17.83;;;;;;;3.69;77.09;100044.61;123841;1109;104246;-77
2023/11/21 02:33:33;;;;;;;32.40;17.30;;;;;;;3.70;77.33;100042.92;123832;1108;101881;-77
2023/11/21 02:36:06;;;;;;;34.07;17.80;;;;;;;3.68;77.04;100044.55;123950;1109;104191;-78
2023/11/21 02:38:37;;;;;;;34.23;17.20;;;;;;;3.65;77.48;100053.05;124017;1109;104344;-77
2023/11/21 02:41:08;;;;;;;37.75;18.50;;;;;;;3.65;77.07;100059.95;123995;1108;104329;-77
2023/11/21 02:43:40;;;;;;;35.53;17.77;;;;;;;3.65;77.19;100060.84;124022;1108;102448;-78
2023/11/21 02:46:12;;;;;;;35.43;17.77;;;;;;;3.66;77.14;100061.72;123885;1108;104336;-76
2023/11/21 02:48:44;;;;;;;36.33;17.90;;;;;;;3.65;77.17;100052.17;124066;1109;102027;-78
2023/11/21 02:51:16;;;;;;;34.53;17.37;;;;;;;3.64;77.93;100051.25;124076;1108;101931;-78
2023/11/21 02:53:48;;;;;;;33.67;17.50;;;;;;;3.65;77.96;100050.45;124020;1109;102390;-77
2023/11/21 02:56:19;;;;;;;36.97;17.27;;;;;;;3.64;77.60;100053.84;123833;1108;103682;-77
2023/11/21 02:58:51;;;;;;;34.05;17.65;;;;;;;3.64;77.51;100046.06;123774;1108;104240;-77
2023/11/21 03:01:23;;;;;;;35.60;17.90;;;;;;;3.64;77.72;100061.63;123856;1108;101855;-78
2023/11/21 03:03:55;;;;;;;33.45;16.80;;;;;;;3.65;78.07;100052.17;123870;1109;104325;-77
2023/11/21 03:06:27;;;;;;;33.00;16.75;;;;;;;3.64;78.20;100046.06;123807;1109;104354;-78
2023/11/21 03:08:58;;;;;;;31.03;16.37;;;;;;;3.64;77.69;100048.66;123824;1108;104203;-77
2023/11/21 03:11:29;;;;;;;34.67;17.83;;;;;;;3.63;78.02;100056.35;123889;1108;104189;-77
2023/11/21 03:14:01;;;;;;;35.10;17.90;;;;;;;3.64;77.95;100051.25;123775;1109;101979;-77
2023/11/21 03:16:32;;;;;;;33.30;16.53;;;;;;;3.65;78.26;100054.77;123817;1109;102160;-78
2023/11/21 03:19:04;;;;;;;33.67;17.00;;;;;;;3.65;78.31;100052.17;123744;1109;104357;-78
2023/11/21 03:21:36;;;;;;;33.53;17.40;;;;;;;3.65;77.58;100049.57;123843;1108;104188;-78
2023/11/21 03:24:11;;;;;;;33.83;17.03;;;;;;;3.66;78.57;100053.94;123796;1108;104265;-77
2023/11/21 03:26:42;;;;;;;35.60;18.30;;;;;;;3.67;78.10;100053.14;123838;1109;104191;-78
2023/11/21 03:29:14;;;;;;;33.63;17.80;;;;;;;3.67;78.33;100066.11;123792;1109;101985;-77
2023/11/21 03:31:45;;;;;;;34.57;17.60;;;;;;;3.68;77.94;100062.72;123820;1109;104082;-77
2023/11/21 03:34:21;;;;;;;33.77;17.47;;;;;;;3.69;78.28;100059.30;123902;1109;104269;-79
2023/11/21 03:36:52;;;;;;;34.90;18.03;;;;;;;3.70;78.32;100068.88;123928;1109;104214;-77
2023/11/21 03:39:25;;;;;;;33.27;17.57;;;;;;;3.71;78.68;100063.77;123930;1109;101869;-78
2023/11/21 03:41:57;;;;;;;33.90;17.23;;;;;;;3.69;78.34;100075.75;123968;1108;104332;-78
2023/11/21 03:44:28;;;;;;;36.13;16.77;;;;;;;3.70;78.49;100076.66;123882;1106;102083;-77
2023/11/21 03:46:59;;;;;;;33.70;16.57;;;;;;;3.67;78.43;100076.48;123949;1108;104336;-77
2023/11/21 03:49:31;;;;;;;34.63;17.87;;;;;;;3.65;78.32;100073.81;123813;1108;101938;-78
2023/11/21 03:52:02;;;;;;;36.43;17.90;;;;;;;3.66;78.62;100072.09;123936;1108;102144;-77
2023/11/21 03:54:37;;;;;;;33.37;17.63;;;;;;;3.67;78.78;100060.92;123800;1109;104189;-79
2023/11/21 03:57:09;;;;;;;33.33;16.27;;;;;;;3.69;78.42;100059.30;123970;1109;104299;-78
2023/11/21 03:59:44;;;;;;;32.93;17.30;;;;;;;3.70;78.58;100063.69;124020;1108;104370;-79
2023/11/21 04:02:15;;;;;;;36.23;16.63;;;;;;;3.70;78.28;100061.09;124038;1108;104246;-79
2023/11/21 04:04:47;;;;;;;33.63;17.47;;;;;;;3.69;78.55;100059.30;124005;1108;101852;-77
2023/11/21 04:07:18;;;;;;;43.23;19.27;;;;;;;3.69;78.87;100065.37;124003;1109;102038;-78
2023/11/21 04:09:50;;;;;;;36.13;17.03;;;;;;;3.68;78.39;100073.09;123950;1109;102723;-78
2023/11/21 04:12:21;;;;;;;35.10;17.50;;;;;;;3.68;78.42;100078.29;123923;1109;104066;-78
2023/11/21 04:14:53;;;;;;;33.57;17.93;;;;;;;3.68;79.02;100091.27;124112;1109;104645;-80
2023/11/21 04:17:24;;;;;;;33.97;17.27;;;;;;;3.65;79.39;100083.30;124249;1109;104670;-80
2023/11/21 04:19:56;;;;;;;36.40;17.67;;;;;;;3.64;78.54;100089.29;124275;1109;104342;-78
2023/11/21 04:22:27;;;;;;;33.47;17.70;;;;;;;3.63;79.42;100092.68;124327;1108;101976;-80
2023/11/21 04:24:59;;;;;;;35.10;17.90;;;;;;;3.62;78.70;100077.94;124234;1109;102381;-80
2023/11/21 04:27:30;;;;;;;34.97;17.43;;;;;;;3.60;79.55;100070.95;124244;1109;104224;-79
2023/11/21 04:30:02;;;;;;;34.63;17.67;;;;;;;3.59;79.10;100076.05;124242;1109;104275;-79
2023/11/21 04:32:33;;;;;;;37.03;18.23;;;;;;;3.56;79.52;100074.17;124341;1108;104194;-78
2023/11/21 04:35:05;;;;;;;36.17;18.87;;;;;;;3.55;79.60;100089.65;124264;1108;104105;-80
2023/11/21 04:37:37;;;;;;;34.67;17.63;;;;;;;3.55;79.54;100089.65;124265;1108;104428;-80
2023/11/21 04:40:11;;;;;;;35.50;18.33;;;;;;;3.55;79.19;100092.24;124234;1108;104201;-79
2023/11/21 04:42:42;;;;;;;33.30;17.70;;;;;;;3.53;79.32;100086.97;124238;1109;101939;-79
2023/11/21 04:45:16;;;;;;;32.60;17.77;;;;;;;3.53;79.20;100089.56;124276;1109;103799;-80
2023/11/21 04:47:47;;;;;;;36.50;18.47;;;;;;;3.53;79.83;100096.45;124202;1108;104224;-79
2023/11/21 04:50:20;;;;;;;35.53;18.60;;;;;;;3.53;79.02;100097.34;124188;1108;102890;-80
2023/11/21 04:52:51;;;;;;;34.07;18.57;;;;;;;3.54;79.51;100098.27;124253;1108;104189;-80
2023/11/21 04:55:23;;;;;;;35.20;17.63;;;;;;;3.55;79.77;100100.03;124332;1108;104676;-80
2023/11/21 04:57:54;;;;;;;38.07;18.67;;;;;;;3.54;80.17;100099.14;124152;1109;118598;-80
2023/11/21 05:00:34;;;;;;;35.60;18.37;;;;;;;3.55;79.68;100100.03;124208;1109;104201;-81
2023/11/21 05:03:06;;;;;;;35.63;18.30;;;;;;;3.57;79.62;100096.72;124903;1109;104300;-81
2023/11/21 05:05:38;;;;;;;35.30;18.60;;;;;;;3.58;80.02;100113.17;124285;1108;104297;-80
2023/11/21 05:08:09;;;;;;;38.70;18.97;;;;;;;3.59;79.78;100115.86;124337;1109;104281;-80
2023/11/21 05:10:41;;;;;;;36.27;18.70;;;;;;;3.62;80.29;100115.15;124279;1108;102404;-81
2023/11/21 05:13:13;;;;;;;37.83;19.67;;;;;;;3.64;80.25;100123.02;124155;1108;104408;-81
2023/11/21 05:15:44;;;;;;;42.67;19.87;;;;;;;3.65;79.93;100120.52;124279;1108;104249;-80
2023/11/21 05:18:16;;;;;;;38.67;20.27;;;;;;;3.67;80.08;100116.30;124327;1109;104233;-80
2023/11/21 05:20:47;;;;;;;39.43;21.63;;;;;;;3.70;80.32;100116.47;124358;1109;102080;-80
2023/11/21 05:23:19;;;;;;;40.80;20.70;;;;;;;3.72;79.96;100108.77;124288;1109;102009;-81
2023/11/21 05:25:50;;;;;;;40.23;20.47;;;;;;;3.73;80.45;100116.64;124301;1108;104221;-79
2023/11/21 05:28:22;;;;;;;38.80;19.70;;;;;;;3.75;79.99;100108.95;124272;1107;104208;-79
2023/11/21 05:30:53;;;;;;;37.27;19.30;;;;;;;3.76;80.20;100110.75;124343;1107;104191;-82
2023/11/21 05:33:25;;;;;;;35.73;18.63;;;;;;;3.74;80.12;100110.66;124459;1108;104188;-80
2023/11/21 05:35:56;;;;;;;37.73;19.90;;;;;;;3.75;80.30;100108.95;124282;1108;102960;-78
2023/11/21 05:38:28;;;;;;;38.50;20.40;;;;;;;3.75;80.06;100109.83;124182;1108;102186;-78
2023/11/21 05:40:59;;;;;;;39.07;20.30;;;;;;;3.76;80.65;100118.53;124186;1109;102109;-76
2023/11/21 05:43:32;;;;;;;41.97;22.33;;;;;;;3.76;80.26;100119.41;124321;1109;104233;-81
2023/11/21 05:46:07;;;;;;;39.83;21.67;;;;;;;3.75;80.29;100107.23;124381;1108;104246;-80
2023/11/21 05:48:38;;;;;;;39.93;20.30;;;;;;;3.79;80.66;100110.92;124319;1108;105521;-82
2023/11/21 05:51:12;;;;;;;35.37;18.90;;;;;;;3.83;80.55;100102.48;124301;1107;104204;-77
2023/11/21 05:53:43;;;;;;;41.68;20.90;;;;;;;3.88;80.69;100101.06;124235;1109;104169;-77
2023/11/21 05:56:15;;;;;;;40.10;20.17;;;;;;;3.92;80.97;100113.38;124141;1108;104208;-78
2023/11/21 05:58:47;;;;;;;37.83;19.97;;;;;;;3.93;80.90;100115.17;124368;1109;104236;-78
2023/11/21 06:01:19;;;;;;;42.95;20.30;;;;;;;3.98;81.03;100105.05;124416;1108;104303;-79
2023/11/21 06:03:51;;;;;;;39.27;20.37;;;;;;;4.02;81.13;100100.91;124393;1109;102213;-81
2023/11/21 06:06:24;;;;;;;40.30;19.75;;;;;;;4.03;81.41;100110.50;124389;1107;103472;-79
2023/11/21 06:08:56;;;;;;;40.90;20.30;;;;;;;4.06;81.37;100115.86;124388;1108;103776;-77
2023/11/21 06:11:33;;;;;;;38.80;20.27;;;;;;;4.10;81.08;100121.31;124381;1108;101830;-79
2023/11/21 06:14:07;;;;;;;42.47;20.47;;;;;;;4.12;81.44;100118.80;124395;1109;103046;-79
2023/11/21 06:16:45;;;;;;;37.97;19.37;;;;;;;4.17;81.02;100119.05;124251;1109;104217;-80
2023/11/21 06:19:18;;;;;;;41.10;20.63;;;;;;;4.22;80.98;100115.88;125106;1108;104223;-80
2023/11/21 06:21:50;;;;;;;40.17;20.87;;;;;;;4.27;81.11;100119.64;124995;1108;102253;-77
2023/11/21 06:24:25;;;;;;;38.90;20.67;;;;;;;4.37;81.28;100127.94;124982;1109;103057;-78
2023/11/21 06:26:59;;;;;;;39.70;21.60;;;;;;;4.46;81.42;100137.12;124419;1109;102576;-78
2023/11/21 06:29:35;;;;;;;41.07;21.07;;;;;;;4.54;81.73;100131.45;124527;1107;104208;-77
2023/11/21 06:32:16;;;;;;;41.83;21.17;;;;;;;4.62;81.18;100128.44;124654;1109;102337;-80
2023/11/21 06:34:47;;;;;;;39.05;19.95;;;;;;;4.70;81.55;100128.84;124177;1108;104197;-77
2023/11/21 06:37:20;;;;;;;39.83;20.73;;;;;;;4.75;81.74;100129.97;124330;1108;101973;-80
2023/11/21 06:39:53;;;;;;;41.35;21.73;;;;;;;4.81;81.88;100143.30;124296;1109;104348;-77
2023/11/21 06:42:25;;;;;;;38.30;20.97;;;;;;;4.87;81.62;100147.94;124489;1108;103768;-78
2023/11/21 06:45:03;;;;;;;40.20;21.63;;;;;;;4.92;81.55;100159.47;124117;1107;103299;-79
2023/11/21 06:47:37;;;;;;;41.85;21.40;;;;;;;4.96;81.97;100158.83;124362;1109;104329;-80
2023/11/21 06:50:22;;;;;;;40.73;21.20;;;;;;;4.99;81.94;100160.70;124904;1109;104228;-77
2023/11/21 06:52:54;;;;;;;41.70;22.10;;;;;;;5.03;82.09;100157.43;124184;1108;104227;-79
2023/11/21 06:55:28;;;;;;;42.93;22.30;;;;;;;5.04;81.80;100157.52;124347;1109;104463;-78
2023/11/21 06:58:02;;;;;;;45.90;23.25;;;;;;;5.05;81.94;100158.42;125130;1108;104255;-77
2023/11/21 07:00:34;;;;;;;42.65;22.55;;;;;;;5.10;81.89;100163.88;124424;1108;102970;-76
2023/11/21 07:03:06;;;;;;;45.37;23.40;;;;;;;5.15;82.45;100163.27;124320;1109;102301;-76
2023/11/21 07:05:43;;;;;;;37.73;21.37;;;;;;;5.19;82.08;100164.34;124305;1109;102740;-79
2023/11/21 07:08:16;;;;;;;40.80;21.50;;;;;;;5.24;81.94;100168.07;124289;1109;104380;-80
2023/11/21 07:11:07;;;;;;;42.77;21.50;;;;;;;5.30;81.89;100165.79;125067;1109;102653;-77
2023/11/21 07:13:39;;;;;;;38.03;20.70;;;;;;;5.36;82.33;100173.91;124298;1108;104210;-77
2023/11/21 07:16:15;;;;;;;38.93;21.03;;;;;;;5.43;82.01;100167.30;124377;1106;104195;-76
2023/11/21 07:18:49;;;;;;;41.07;21.80;;;;;;;5.48;82.39;100159.73;124206;1109;102072;-76
2023/11/21 07:21:20;;;;;;;40.23;21.50;;;;;;;5.53;82.59;100163.44;124178;1109;104070;-77
2023/11/21 07:23:52;;;;;;;38.50;20.93;;;;;;;5.58;82.15;100143.77;124409;1109;101973;-78
2023/11/21 07:26:28;;;;;;;44.03;21.87;;;;;;;5.64;82.18;100151.88;124475;1107;103752;-80
2023/11/21 07:29:02;;;;;;;39.30;20.97;;;;;;;5.70;82.20;100154.80;124434;1109;102067;-78
2023/11/21 07:31:41;;;;;;;40.10;21.43;;;;;;;5.73;82.20;100165.36;125072;1109;104394;-77
2023/11/21 07:34:15;;;;;;;39.60;20.97;;;;;;;5.74;82.05;100161.03;124388;1109;102470;-79
2023/11/21 07:39:47;;;;;;;40.43;21.30;;;;;;;5.75;81.57;100163.72;124765;1108;104198;-78
2023/11/21 07:42:19;;;;;;;40.80;21.57;;;;;;;5.76;82.10;100159.39;124419;1109;102504;-76
2023/11/21 07:44:51;;;;;;;41.90;21.93;;;;;;;5.78;82.25;100165.59;124429;1108;104345;-77
2023/11/21 07:50:46;;;;;;;41.00;22.17;;;;;;;5.78;82.09;100162.98;124367;1108;103231;-77
2023/11/21 07:53:20;;;;;;;43.53;22.67;;;;;;;5.80;82.07;100155.22;124427;1109;102187;-78
2023/11/21 07:56:03;;;;;;;42.37;21.77;;;;;;;5.83;81.72;100150.16;124427;1109;104198;-76
2023/11/21 07:58:38;;;;;;;44.60;23.13;;;;;;;5.84;82.03;100144.15;124290;1109;103570;-74
2023/11/21 08:01:10;;;;;;;39.43;21.77;;;;;;;5.83;82.26;100139.75;124365;1109;103315;-78
2023/11/21 08:03:44;;;;;;;42.07;22.33;;;;;;;5.84;81.89;100142.42;124448;1108;104249;-77
2023/11/21 08:06:18;;;;;;;;;;;;;;;5.85;81.85;100153.75;124537;1108;103315;-75
2023/11/21 08:08:50;;;;;;;46.73;23.20;;;;;;;5.85;81.77;100149.43;124673;1109;104393;-81
2023/11/21 08:11:22;;;;;;;45.23;22.07;;;;;;;5.86;81.58;100146.02;124655;1109;103025;-82
2023/11/21 08:14:10;;;;;;;40.73;21.93;;;;;;;5.90;81.99;100147.94;124475;1108;104236;-76
2023/11/21 08:16:52;;;;;;;43.70;21.47;;;;;;;5.96;82.18;100151.68;125072;1109;104274;-78
2023/11/21 08:19:27;;;;;;;46.17;24.57;;;;;;;6.01;81.93;100145.89;124951;1108;102270;-75
2023/11/21 08:21:59;;;;;;;42.30;22.80;;;;;;;6.08;82.19;100149.70;124282;1108;103739;-78
2023/11/21 08:24:31;;;;;;;43.10;22.03;;;;;;;6.14;82.16;100146.47;124267;1108;102892;-75
2023/11/21 08:27:04;;;;;;;43.70;22.13;;;;;;;6.20;81.62;100149.37;124336;1109;102129;-78
2023/11/21 08:29:37;;;;;;;41.93;22.37;;;;;;;6.24;81.85;100157.41;124354;1108;104038;-75
2023/11/21 08:32:11;;;;;;;38.70;20.90;;;;;;;6.27;82.07;100160.16;124405;1109;102045;-78
2023/11/21 08:34:44;;;;;;;40.47;20.90;;;;;;;6.33;82.01;100164.78;124607;1109;102428;-79
2023/11/21 08:37:20;;;;;;;40.67;22.70;;;;;;;6.42;82.03;100165.22;124490;1108;102455;-80
2023/11/21 08:39:57;;;;;;;38.93;21.43;;;;;;;6.49;82.16;100166.39;124392;1109;103257;-78
2023/11/21 08:42:34;;;;;;;39.30;22.43;;;;;;;6.55;82.03;100171.89;125155;1109;103736;-77
2023/11/21 08:45:10;;;;;;;42.17;22.80;;;;;;;6.60;81.53;100177.31;125019;1109;102888;-75
2023/11/21 08:47:47;;;;;;;37.67;21.77;;;;;;;6.64;81.74;100176.65;124446;1108;102256;-76
2023/11/21 08:50:28;;;;;;;41.87;24.30;;;;;;;6.68;82.08;100167.23;124493;1108;104304;-76
2023/11/21 08:53:02;;;;;;;40.30;22.65;;;;;;;6.71;81.97;100169.98;124505;1108;109258;-78
2023/11/21 08:55:38;;;;;;;44.43;25.10;;;;;;;6.74;81.98;100172.73;124424;1108;103103;-75
2023/11/21 08:58:12;;;;;;;42.33;24.47;;;;;;;6.75;81.65;100174.53;125565;1107;101970;-76
2023/11/21 09:00:59;;;;;;;48.00;24.87;;;;;;;6.74;81.46;100173.63;125680;1109;101876;-77
2023/11/21 09:03:32;;;;;;;46.87;25.27;;;;;;;6.74;82.14;100168.41;125132;1109;104200;-78
2023/11/21 09:06:10;;;;;;;40.13;24.03;;;;;;;6.76;81.37;100160.66;125094;1108;102970;-77
2023/11/21 09:08:50;;;;;;;43.13;24.13;;;;;;;6.77;81.77;100147.69;125027;1109;102903;-75
2023/11/21 09:11:35;;;;;;;;;;;;;;;;;;;;;
2023/11/21 09:14:38;;;;;;;43.87;22.90;;;;;;;6.78;81.33;100141.66;125132;1108;101858;-77
2023/11/21 09:17:19;;;;;;;41.70;22.30;;;;;;;6.89;81.83;100143.83;125184;1109;104198;-84
2023/11/21 09:20:13;;;;;;;42.73;23.00;;;;;;;6.95;81.09;100136.28;125160;1108;104137;-81
2023/11/21 09:23:00;;;;;;;39.73;22.00;;;;;;;7.04;81.57;100135.81;124603;1109;104245;-82
2023/11/21 09:25:33;;;;;;;40.15;22.27;;;;;;;7.10;81.38;100130.86;124414;1108;104290;-80
2023/11/21 09:28:08;;;;;;;41.87;21.57;;;;;;;7.12;81.41;100129.20;124561;1108;104197;-76
2023/11/21 09:30:40;;;;;;;38.83;21.47;;;;;;;7.15;81.53;100130.25;124326;1109;103048;-78
2023/11/21 09:33:12;;;;;;;37.40;20.77;;;;;;;7.14;81.29;100128.45;124450;1109;104189;-79
2023/11/21 09:35:46;;;;;;;36.17;20.83;;;;;;;7.20;81.39;100123.50;124380;1108;102464;-79
2023/11/21 09:38:19;;;;;;;36.38;20.17;;;;;;;7.23;81.11;100127.06;124383;1109;104216;-78
2023/11/21 09:40:53;;;;;;;36.68;20.10;;;;;;;7.25;81.14;100126.31;124413;1109;102391;-83
2023/11/21 09:43:35;;;;;;;34.67;18.90;;;;;;;7.33;81.39;100129.25;125112;1108;103428;-76
2023/11/21 09:46:12;;;;;;;41.77;21.80;;;;;;;7.39;80.87;100124.29;124215;1109;104287;-75
2023/11/21 09:48:58;;;;;;;38.60;20.87;;;;;;;7.52;82.24;100123.95;124406;1109;104249;-78
2023/11/21 09:51:38;;;;;;;39.47;21.37;;;;;;;7.68;81.72;100119.38;124355;1109;104173;-78
2023/11/21 09:54:15;;;;;;;38.67;21.20;;;;;;;7.86;81.39;100112.30;124457;1107;104316;-78
2023/11/21 09:56:48;;;;;;;38.70;20.87;;;;;;;8.02;81.42;100105.07;124362;1109;104224;-77
2023/11/21 09:59:31;;;;;;;40.10;20.37;;;;;;;8.14;81.57;100102.94;124166;1109;104205;-77
2023/11/21 10:02:13;;;;;;;39.03;20.90;;;;;;;8.26;81.32;100111.27;124260;1109;103897;-75
2023/11/21 10:04:50;;;;;;;37.63;20.50;;;;;;;8.40;80.79;100105.69;124186;1109;110803;-76
2023/11/21 10:07:34;;;;;;;37.43;20.03;;;;;;;8.55;80.96;100101.03;124359;1108;104191;-77
2023/11/21 10:10:17;;;;;;;39.77;19.90;;;;;;;8.69;80.89;100103.29;124364;1107;103141;-78
2023/11/21 10:12:58;;;;;;;35.17;19.93;;;;;;;8.76;80.49;100098.34;124954;1109;102603;-78
2023/11/21 10:15:35;;;;;;;34.93;20.07;;;;;;;8.83;80.82;100102.06;125048;1108;102107;-78
2023/11/21 10:18:28;;;;;;;35.67;18.47;;;;;;;8.86;80.62;100103.91;125114;1108;103367;-78
2023/11/21 10:21:09;;;;;;;34.30;18.55;;;;;;;8.84;81.09;100092.50;125083;1107;103013;-78
2023/11/21 10:23:46;;;;;;;34.33;18.53;;;;;;;8.84;80.74;100092.50;124829;1108;102777;-79
2023/11/21 10:26:20;;;;;;;35.77;18.90;;;;;;;8.82;80.42;100097.69;124541;1108;104172;-80
2023/11/21 10:29:01;;;;;;;37.55;19.25;;;;;;;8.77;80.64;100096.59;125673;1107;102650;-77
2023/11/21 10:31:36;;;;;;;36.30;19.63;;;;;;;8.73;80.24;100090.38;125528;1108;102014;-78
2023/11/21 10:34:21;;;;;;;33.87;19.23;;;;;;;8.65;79.92;100086.60;125403;1109;102729;-78
2023/11/21 10:37:07;;;;;;;;;;;;;;;;;;;;;
2023/11/21 10:39:43;;;;;;;31.20;17.37;;;;;;;8.52;80.18;100080.00;125716;1109;102916;-78
2023/11/21 10:42:24;;;;;;;32.80;18.30;;;;;;;8.51;79.65;100088.70;125556;1109;102492;-80
2023/11/21 10:45:13;;;;;;;32.53;17.23;;;;;;;8.51;79.63;100096.55;125573;1107;102178;-80
2023/11/21 10:48:10;;;;;;;33.33;17.63;;;;;;;8.47;80.07;100102.48;125698;1108;101787;-80
2023/11/21 10:51:09;;;;;;;33.80;18.13;;;;;;;8.42;79.71;100104.89;125319;1109;102570;-81
2023/11/21 10:53:54;;;;;;;34.80;17.87;;;;;;;8.43;80.04;100111.94;125291;1109;103203;-80
2023/11/21 10:56:56;;;;;;;32.37;16.50;;;;;;;8.43;79.56;100100.54;125771;1107;101970;-78
2023/11/21 10:59:49;;;;;;;31.90;17.17;;;;;;;8.43;79.68;100100.54;125613;1107;102724;-76
2023/11/21 11:02:27;;;;;;;33.50;17.40;;;;;;;8.43;79.80;100095.31;125649;1108;102621;-78
2023/11/21 11:05:01;;;;;;;32.43;17.57;;;;;;;8.47;79.67;100097.25;125642;1109;102709;-79
2023/11/21 11:07:34;;;;;;;;;;;;;;;8.50;80.03;100088.64;125147;1108;101888;-79
2023/11/21 11:10:26;;;;;;;35.03;18.03;;;;;;;8.50;79.54;100094.75;125126;1108;102067;-79
2023/11/21 11:13:03;;;;;;;32.17;17.23;;;;;;;8.54;79.30;100095.75;125056;1109;102634;-76
2023/11/21 11:15:40;;;;;;;31.90;17.37;;;;;;;8.63;79.97;100094.39;124457;1109;103420;-79
2023/11/21 11:18:15;;;;;;;32.27;18.27;;;;;;;8.72;79.68;100098.17;124398;1107;102393;-77
2023/11/21 11:20:49;;;;;;;34.93;18.13;;;;;;;8.76;79.67;100098.34;124123;1109;104204;-78
2023/11/21 11:23:41;;;;;;;32.23;17.30;;;;;;;8.80;79.27;100088.86;124113;1109;104191;-75
2023/11/21 11:26:27;;;;;;;36.53;17.53;;;;;;;8.85;79.84;100087.33;124392;1109;111347;-76
2023/11/21 11:29:11;;;;;;;32.60;17.10;;;;;;;8.90;79.90;100096.22;125234;1109;103236;-77
2023/11/21 11:32:16;;;;;;;32.80;18.07;;;;;;;8.90;79.37;100093.61;124382;1109;102253;-77
2023/11/21 11:35:01;;;;;;;34.83;18.03;;;;;;;8.92;79.46;100098.89;124720;1108;103696;-77
2023/11/21 11:37:39;;;;;;;34.33;18.27;;;;;;;8.90;79.38;100093.61;124504;1108;102965;-78
2023/11/21 11:40:25;;;;;;;39.07;18.40;;;;;;;8.94;78.96;100091.98;124502;1109;102950;-76
2023/11/21 11:43:21;;;;;;;32.15;17.20;;;;;;;8.92;78.78;100086.69;124599;1106;104175;-76
2023/11/21 11:46:18;;;;;;;31.73;17.50;;;;;;;8.84;78.92;100090.77;125408;1107;104327;-76